Portada
METAR-TAF:

METAR-TAF

Aeroports :

Guilin, Xina

latitud: 25-20N, longitud: 110-18E, altitud: 166 m

Observació

L'informe es va fer fa 46 minuts, a les 18:00 UTC
Vent 2 kt amb direcció variable
Temperatura 26°C
Humitat 94%
Pressió 1002 hPa
Visibilitat 10 km o més
Escasses núvols a una alçada de 5000 ft
Cel ennuvolat a una alçada de 7000 ft

METAR: ZGKL 121800Z VRB01MPS 9999 FEW050 BKN070 26/25 Q1002 NOSIG

Hora: 02:46 (18:46 UTC)

Pronòstic

L'informe es va fer fa 3 hores i 40 minuts, a les 15:06 UTC
Pronòstic vàlid del 12 a les 18 UTC al 13 a les 18 UTC
Vent 6 kt del Sud
Visibilitat: 6000 m
Escasses núvols a una alçada de 3000 ft
Temporalment
l' 13 a les 05 UTC al 13 a les 11 UTC
Escasses núvols a una alçada de 3000 ft, Cumulonimbus.
Núvols disperses a una alçada de 3000 ft

TAF: ZGKL 121506Z 1218/1318 18003MPS 6000 FEW030 TX35/1307Z TN26/1222Z TEMPO 1305/1311 FEW030CB SCT030

Observacions i pronòstics meteorològics de més de 4000 aeroports (METAR i TAF).

Les estacions disponibles són els punts grocs i vermells al mapa.

Posi el ratolí al punt desitjat per veure el nom de l'estació.

Feu clic per veure les observacions i els pronòstics meteorològics.

Per canviar el mapa: feu clic els botons verds amb una creu de color negre per apropar; al botó verd amb un guió per allunyar la imatge; o en les fletxes verdes per a mapes adjacents.


METAR-TAF: